createdAt,value
2023-04-18T00:00:58.714Z,30.0408
2023-04-18T00:02:02.663Z,30.0525
2023-04-18T00:03:06.802Z,30.0542
2023-04-18T00:04:11.045Z,30.0408
2023-04-18T00:05:15.275Z,30.0425
2023-04-18T00:06:19.172Z,30.0675
2023-04-18T00:07:23.086Z,30.0458
2023-04-18T00:08:26.981Z,30.0492
2023-04-18T00:09:30.925Z,30.0508
2023-04-18T00:10:35.049Z,30.0467
2023-04-18T00:11:38.956Z,30.0642
2023-04-18T00:12:43.312Z,30.0617
2023-04-18T00:13:47.241Z,30.0617
2023-04-18T00:14:51.124Z,30.0467
2023-04-18T00:15:55.054Z,30.0242
2023-04-18T00:16:58.988Z,30.0225
2023-04-18T00:18:03.328Z,30.0183
2023-04-18T00:19:07.280Z,30.0025
2023-04-18T00:20:11.450Z,29.9983
2023-04-18T00:21:15.331Z,30.0008
2023-04-18T00:22:19.247Z,30.0275
2023-04-18T00:23:23.155Z,30.0308
2023-04-18T00:24:27.054Z,30.0283
2023-04-18T00:25:30.972Z,30.0242
2023-04-18T00:26:34.872Z,30.0183
2023-04-18T00:27:39.049Z,30.0292
2023-04-18T00:28:42.926Z,30.0525
2023-04-18T00:29:47.072Z,30.0567
2023-04-18T00:30:50.988Z,30.0517
2023-04-18T00:31:54.874Z,30.0592
2023-04-18T00:32:58.807Z,30.0625
2023-04-18T00:34:02.716Z,30.0583
2023-04-18T00:35:06.947Z,30.0558
2023-04-18T00:36:10.849Z,30.0567
2023-04-18T00:37:14.771Z,30.0500
2023-04-18T00:38:18.720Z,30.0575
2023-04-18T00:39:22.617Z,30.0508
2023-04-18T00:40:26.781Z,30.0500
2023-04-18T00:41:30.709Z,30.0500
2023-04-18T00:42:34.913Z,30.0583
2023-04-18T00:43:38.989Z,30.0800
2023-04-18T00:44:42.899Z,30.0733
2023-04-18T00:45:46.828Z,30.0583
2023-04-18T00:46:50.722Z,30.0392
2023-04-18T00:47:54.656Z,30.0250
2023-04-18T00:48:58.586Z,30.0267
2023-04-18T00:50:02.492Z,30.0375
2023-04-18T00:51:06.400Z,30.0475
2023-04-18T00:52:10.305Z,30.0533
2023-04-18T00:53:14.215Z,30.0550
2023-04-18T00:54:18.125Z,30.0433
2023-04-18T00:55:22.247Z,30.0158
2023-04-18T00:56:26.167Z,30.0075
2023-04-18T00:57:30.286Z,30.0225
2023-04-18T00:58:34.196Z,30.0342
2023-04-18T00:59:38.107Z,30.0375
2023-04-18T01:00:42.017Z,30.0400
2023-04-18T01:01:45.926Z,30.0633
2023-04-18T01:02:50.302Z,30.0500
2023-04-18T01:03:54.318Z,30.0517
2023-04-18T01:04:58.520Z,30.0642
2023-04-18T01:06:02.413Z,30.0600
2023-04-18T01:07:06.369Z,30.0500
2023-04-18T01:08:10.238Z,30.0367
2023-04-18T01:09:14.161Z,30.0300
2023-04-18T01:10:18.384Z,30.0267
2023-04-18T01:11:22.275Z,30.0167
2023-04-18T01:12:26.186Z,30.0167
2023-04-18T01:13:30.081Z,30.0092
2023-04-18T01:14:33.987Z,30.0200
2023-04-18T01:15:37.948Z,30.0542
2023-04-18T01:16:41.814Z,30.1025
2023-04-18T01:17:45.729Z,30.1150
2023-04-18T01:18:49.657Z,30.0975
2023-04-18T01:19:53.817Z,30.0917
2023-04-18T01:20:57.730Z,30.1125
2023-04-18T01:22:01.622Z,30.0950
2023-04-18T01:23:05.528Z,30.0817
2023-04-18T01:24:09.429Z,30.0767
2023-04-18T01:25:13.334Z,30.0608
2023-04-18T01:26:17.269Z,30.0458
2023-04-18T01:27:21.442Z,30.0533
2023-04-18T01:28:25.337Z,30.0842
2023-04-18T01:29:29.480Z,30.1108
2023-04-18T01:30:33.387Z,30.0925
2023-04-18T01:31:37.346Z,30.0550
2023-04-18T01:32:41.293Z,30.0650
2023-04-18T01:33:45.187Z,30.0775
2023-04-18T01:34:49.114Z,30.0842
2023-04-18T01:35:53.029Z,30.0892
2023-04-18T01:36:56.922Z,30.0792
2023-04-18T01:38:00.827Z,30.0600
2023-04-18T01:39:04.741Z,30.0400
2023-04-18T01:40:08.979Z,30.0317
2023-04-18T01:41:12.859Z,30.0433
2023-04-18T01:42:16.773Z,30.0592
2023-04-18T01:43:20.684Z,30.0800
2023-04-18T01:44:24.594Z,30.0858
2023-04-18T01:45:28.511Z,30.0933
2023-04-18T01:46:32.473Z,30.0917
2023-04-18T01:47:36.558Z,30.0800
2023-04-18T01:48:40.483Z,30.1025
2023-04-18T01:49:44.374Z,30.0933
2023-04-18T01:50:48.287Z,30.0725
2023-04-18T01:51:52.181Z,30.1017
2023-04-18T01:52:56.107Z,30.1092
2023-04-18T01:54:00.020Z,30.1008
2023-04-18T01:55:04.146Z,30.1150
2023-04-18T01:56:08.070Z,30.1317
2023-04-18T01:57:12.005Z,30.1225
2023-04-18T01:58:15.909Z,30.1242
2023-04-18T01:59:19.810Z,30.1342
2023-04-18T02:00:23.934Z,30.1483
2023-04-18T02:01:27.888Z,30.1608
2023-04-18T02:02:32.087Z,30.1550
2023-04-18T02:03:36.259Z,30.1083
2023-04-18T02:04:40.236Z,30.0833
2023-04-18T02:05:44.171Z,30.0467
2023-04-18T02:06:48.079Z,30.0575
2023-04-18T02:07:52.008Z,30.0700
2023-04-18T02:08:55.934Z,30.0892
2023-04-18T02:10:00.071Z,30.0917
2023-04-18T02:11:03.934Z,30.1008
2023-04-18T02:12:08.084Z,30.1233
2023-04-18T02:13:11.989Z,30.1275
2023-04-18T02:14:15.928Z,30.1258
2023-04-18T02:15:19.888Z,30.1200
2023-04-18T02:16:23.831Z,30.1258
2023-04-18T02:17:27.740Z,30.1217
2023-04-18T02:18:31.607Z,30.1208
2023-04-18T02:19:35.765Z,30.1517
2023-04-18T02:20:39.651Z,30.1650
2023-04-18T02:21:43.557Z,30.1675
2023-04-18T02:22:47.466Z,30.1883
2023-04-18T02:23:51.383Z,30.1933
2023-04-18T02:24:55.532Z,30.1608
2023-04-18T02:25:59.436Z,30.1358
2023-04-18T02:27:03.329Z,30.1258
2023-04-18T02:28:07.229Z,30.1475
2023-04-18T02:29:11.134Z,30.1650
2023-04-18T02:30:15.029Z,30.1617
2023-04-18T02:31:18.931Z,30.1475
2023-04-18T02:32:22.850Z,30.1358
2023-04-18T02:33:26.745Z,30.1500
2023-04-18T02:34:30.956Z,30.1575
2023-04-18T02:35:34.829Z,30.1608
2023-04-18T02:36:38.711Z,30.1742
2023-04-18T02:37:42.608Z,30.1825
2023-04-18T02:38:46.493Z,30.1625
2023-04-18T02:39:50.396Z,30.1317
2023-04-18T02:40:54.308Z,30.1267
2023-04-18T02:41:58.436Z,30.1383
2023-04-18T02:43:02.332Z,30.1417
2023-04-18T02:44:06.237Z,30.1150
2023-04-18T02:45:10.377Z,30.1158
2023-04-18T02:46:14.323Z,30.1400
2023-04-18T02:47:18.207Z,30.1200
2023-04-18T02:48:22.114Z,30.1058
2023-04-18T02:49:25.979Z,30.1117
2023-04-18T02:50:29.887Z,30.1300
2023-04-18T02:51:33.814Z,30.1583
2023-04-18T02:52:37.722Z,30.1650
2023-04-18T02:53:41.658Z,30.1508
2023-04-18T02:54:45.741Z,30.1525
2023-04-18T02:55:49.626Z,30.1175
2023-04-18T02:56:53.740Z,30.1058
2023-04-18T02:57:57.624Z,30.0792
2023-04-18T02:59:01.519Z,30.0700
2023-04-18T03:00:05.381Z,30.0925
2023-04-18T03:01:09.313Z,30.0833
2023-04-18T03:02:13.466Z,30.0867
2023-04-18T03:03:17.391Z,30.1067
2023-04-18T03:04:21.310Z,30.1308
2023-04-18T03:05:25.187Z,30.1600
2023-04-18T03:06:29.074Z,30.1483
2023-04-18T03:07:33.009Z,30.1300
2023-04-18T03:08:36.920Z,30.1492
2023-04-18T03:09:41.040Z,30.1658
2023-04-18T03:10:44.920Z,30.1625
2023-04-18T03:11:48.914Z,30.1550
2023-04-18T03:12:52.804Z,30.1658
2023-04-18T03:13:56.722Z,30.1650
2023-04-18T03:15:00.624Z,30.1608
2023-04-18T03:16:04.629Z,30.1483
2023-04-18T03:17:08.761Z,30.1308
2023-04-18T03:18:12.681Z,30.1058
2023-04-18T03:19:16.831Z,30.0808
2023-04-18T03:20:20.733Z,30.0308
2023-04-18T03:21:24.624Z,29.9767
2023-04-18T03:22:28.525Z,30.0058
2023-04-18T03:23:32.407Z,30.0525
2023-04-18T03:24:36.521Z,30.1025
2023-04-18T03:25:40.402Z,30.1367
2023-04-18T03:26:44.524Z,30.1625
2023-04-18T03:27:48.407Z,30.2092
2023-04-18T03:28:52.301Z,30.2433
2023-04-18T03:29:56.185Z,30.2725
2023-04-18T03:31:00.144Z,30.2950
2023-04-18T03:32:04.055Z,30.2900
2023-04-18T03:33:07.953Z,30.3017
2023-04-18T03:34:12.120Z,30.2858
2023-04-18T03:35:16.217Z,30.2717
2023-04-18T03:36:20.138Z,30.2700
2023-04-18T03:37:24.046Z,30.2800
2023-04-18T03:38:27.944Z,30.2625
2023-04-18T03:39:32.078Z,30.2617
2023-04-18T03:40:35.966Z,30.2767
2023-04-18T03:41:39.835Z,30.2833
2023-04-18T03:42:43.724Z,30.2692
2023-04-18T03:43:47.594Z,30.2317
2023-04-18T03:44:51.498Z,30.2075
2023-04-18T03:45:55.411Z,30.2042
2023-04-18T03:46:59.614Z,30.1958
2023-04-18T03:48:03.502Z,30.1967
2023-04-18T03:49:07.560Z,30.1817
2023-04-18T03:50:11.439Z,30.1508
2023-04-18T03:51:15.316Z,30.1658
2023-04-18T03:52:19.198Z,30.1892
2023-04-18T03:53:23.081Z,30.1883
2023-04-18T03:54:27.281Z,30.1592
2023-04-18T03:55:31.172Z,30.1542
2023-04-18T03:56:35.793Z,30.1508
2023-04-18T03:57:41.275Z,30.1258
2023-04-18T03:58:39.983Z,30.0991
2023-04-18T03:59:45.567Z,30.0883
2023-04-18T04:00:45.274Z,30.0764
2023-04-18T04:01:49.488Z,30.0642
2023-04-18T04:02:53.520Z,30.0508
2023-04-18T04:03:57.559Z,30.0367
2023-04-18T04:05:01.519Z,30.0417
2023-04-18T04:06:05.445Z,30.0375
2023-04-18T04:07:09.571Z,30.0175
2023-04-18T04:08:13.475Z,30.0075
2023-04-18T04:09:17.374Z,29.9892
2023-04-18T04:10:21.282Z,29.9850
2023-04-18T04:11:25.197Z,29.9825
2023-04-18T04:12:29.156Z,29.9758
2023-04-18T04:13:33.036Z,29.9608
2023-04-18T04:14:37.035Z,29.9817
2023-04-18T04:15:40.928Z,30.0000
2023-04-18T04:16:45.027Z,30.0208
2023-04-18T04:17:48.976Z,30.0567
2023-04-18T04:18:52.865Z,30.1317
2023-04-18T04:19:56.748Z,30.1617
2023-04-18T04:21:00.660Z,30.2117
2023-04-18T04:22:04.558Z,30.3058
2023-04-18T04:23:08.467Z,30.3867
2023-04-18T04:24:12.534Z,30.5325
2023-04-18T04:25:16.546Z,30.6133
2023-04-18T04:26:20.460Z,30.6583
2023-04-18T04:27:24.383Z,30.6533
2023-04-18T04:28:28.272Z,30.6550
2023-04-18T04:29:32.423Z,30.6417
2023-04-18T04:30:36.313Z,30.6608
2023-04-18T04:31:40.472Z,30.6633
2023-04-18T04:32:44.375Z,30.6892
2023-04-18T04:33:48.242Z,30.7158
2023-04-18T04:34:52.121Z,30.7492
2023-04-18T04:35:56.024Z,30.7708
2023-04-18T04:36:59.914Z,30.7825
2023-04-18T04:38:03.813Z,30.7867
2023-04-18T04:39:07.938Z,30.8117
2023-04-18T04:40:11.847Z,30.8125
2023-04-18T04:41:15.709Z,30.8008
2023-04-18T04:42:19.588Z,30.8225
2023-04-18T04:43:23.488Z,30.8475
2023-04-18T04:44:27.700Z,30.8858
2023-04-18T04:45:31.612Z,30.9267
2023-04-18T04:46:35.773Z,30.9158
2023-04-18T04:47:39.739Z,30.9108
2023-04-18T04:48:43.649Z,30.9742
2023-04-18T04:49:47.493Z,31.0183
2023-04-18T04:50:51.376Z,31.0558
2023-04-18T04:51:55.285Z,31.0783
2023-04-18T04:52:59.185Z,31.1125
2023-04-18T04:54:03.109Z,31.1242
2023-04-18T04:55:06.988Z,31.0950
2023-04-18T04:56:10.859Z,31.1233
2023-04-18T04:57:14.768Z,31.1392
2023-04-18T04:58:18.685Z,31.1208
2023-04-18T04:59:22.989Z,31.1517
2023-04-18T05:00:26.910Z,31.1433
2023-04-18T05:01:31.061Z,31.1342
2023-04-18T05:02:35.050Z,31.1558
2023-04-18T05:03:39.438Z,31.2067
2023-04-18T05:04:43.431Z,31.2408
2023-04-18T05:05:47.275Z,31.2692
2023-04-18T05:06:51.264Z,31.2383
2023-04-18T05:07:55.153Z,31.2183
2023-04-18T05:08:59.043Z,31.2008
2023-04-18T05:10:02.969Z,31.2342
2023-04-18T05:11:06.863Z,31.2642
2023-04-18T05:12:11.012Z,31.3325
2023-04-18T05:13:14.915Z,31.3292
2023-04-18T05:14:19.025Z,31.2675
2023-04-18T05:15:22.914Z,31.2567
2023-04-18T05:16:26.872Z,31.2917
2023-04-18T05:17:30.789Z,31.2917
2023-04-18T05:18:35.092Z,31.2725
2023-04-18T05:19:39.019Z,31.3175
2023-04-18T05:20:42.901Z,31.3725
2023-04-18T05:21:46.779Z,31.3725
2023-04-18T05:22:50.686Z,31.3192
2023-04-18T05:23:54.867Z,31.3333
2023-04-18T05:24:58.749Z,31.3225
2023-04-18T05:26:02.678Z,31.3658
2023-04-18T05:27:06.592Z,31.3958
2023-04-18T05:28:10.471Z,31.4125
2023-04-18T05:29:14.347Z,31.4375
2023-04-18T05:30:18.264Z,31.4558
2023-04-18T05:31:22.201Z,31.4067
2023-04-18T05:32:26.057Z,31.4000
2023-04-18T05:33:29.953Z,31.3725
2023-04-18T05:34:33.839Z,31.3908
2023-04-18T05:35:37.745Z,31.3725
2023-04-18T05:36:41.658Z,31.3758
2023-04-18T05:37:45.541Z,31.4292
2023-04-18T05:38:49.456Z,31.4567
2023-04-18T05:39:53.343Z,31.4333
2023-04-18T05:40:57.221Z,31.3800
2023-04-18T05:42:01.367Z,31.3467
2023-04-18T05:43:05.269Z,31.3150
2023-04-18T05:44:09.186Z,31.2692
2023-04-18T05:45:13.086Z,31.2642
2023-04-18T05:46:17.300Z,31.2925
2023-04-18T05:47:21.275Z,31.2625
2023-04-18T05:48:25.188Z,31.2583
2023-04-18T05:49:29.063Z,31.2558
2023-04-18T05:50:32.958Z,31.2158
2023-04-18T05:51:37.083Z,31.1875
2023-04-18T05:52:40.984Z,31.2050
2023-04-18T05:53:44.855Z,31.2517
2023-04-18T05:54:48.757Z,31.2658
2023-04-18T05:55:52.635Z,31.2767
2023-04-18T05:56:56.528Z,31.2483
2023-04-18T05:58:00.437Z,31.2708
2023-04-18T05:59:04.587Z,31.2025
2023-04-18T06:00:08.476Z,31.1900
2023-04-18T06:01:12.407Z,31.2067
2023-04-18T06:02:16.379Z,31.1425
2023-04-18T06:03:20.600Z,31.2267
2023-04-18T06:04:24.670Z,31.2225
2023-04-18T06:05:28.899Z,31.2125
2023-04-18T06:06:33.239Z,31.2608
2023-04-18T06:07:37.132Z,31.3308
2023-04-18T06:08:41.055Z,31.3125
2023-04-18T06:09:44.970Z,31.2158
2023-04-18T06:10:48.885Z,31.2742
2023-04-18T06:11:52.828Z,31.2975
2023-04-18T06:12:56.704Z,31.3383
2023-04-18T06:14:00.863Z,31.3583
2023-04-18T06:15:04.762Z,31.4175
2023-04-18T06:16:08.878Z,31.4258
2023-04-18T06:17:12.859Z,31.4392
2023-04-18T06:18:16.738Z,31.3933
2023-04-18T06:19:20.651Z,31.4242
2023-04-18T06:20:24.544Z,31.3883
2023-04-18T06:21:28.436Z,31.2258
2023-04-18T06:22:32.326Z,31.3200
2023-04-18T06:23:36.454Z,31.3725
2023-04-18T06:24:40.345Z,31.4042
2023-04-18T06:25:44.225Z,31.5000
2023-04-18T06:26:48.391Z,31.4783
2023-04-18T06:27:52.270Z,31.4225
2023-04-18T06:28:56.189Z,31.5158
2023-04-18T06:30:00.165Z,31.4983
2023-04-18T06:31:04.081Z,31.6250
2023-04-18T06:32:07.964Z,31.9958
2023-04-18T06:33:11.821Z,32.1417
2023-04-18T06:34:15.905Z,32.1583
2023-04-18T06:35:19.968Z,32.1225
2023-04-18T06:36:24.102Z,31.9408
2023-04-18T06:37:27.995Z,31.9458
2023-04-18T06:38:31.875Z,31.9600
2023-04-18T06:39:35.799Z,31.9025
2023-04-18T06:40:39.738Z,32.0208
2023-04-18T06:41:43.649Z,32.0392
2023-04-18T06:42:47.563Z,32.0242
2023-04-18T06:44:02.851Z,31.9508
2023-04-18T06:44:55.947Z,32.0527
2023-04-18T06:45:59.944Z,31.8133
2023-04-18T06:47:03.845Z,31.7492
2023-04-18T06:48:07.820Z,31.9792
2023-04-18T06:49:11.694Z,31.9592
2023-04-18T06:50:15.579Z,32.0783
2023-04-18T06:51:19.483Z,31.9308
2023-04-18T06:52:23.948Z,31.4350
2023-04-18T06:53:27.818Z,31.6150
2023-04-18T06:54:31.718Z,31.8142
2023-04-18T06:55:35.629Z,31.4692
2023-04-18T06:56:39.565Z,31.3350
2023-04-18T06:57:43.463Z,31.5650
2023-04-18T06:58:47.370Z,31.6450
2023-04-18T06:59:51.261Z,31.8317
2023-04-18T07:00:55.190Z,31.9683
2023-04-18T07:01:59.087Z,31.8992
2023-04-18T07:03:03.101Z,31.8533
2023-04-18T07:04:07.166Z,32.0242
2023-04-18T07:05:11.106Z,32.2867
2023-04-18T07:06:14.995Z,32.3025
2023-04-18T07:07:18.934Z,32.2400
2023-04-18T07:08:22.906Z,32.3883
2023-04-18T07:09:26.860Z,32.0358
2023-04-18T07:10:30.774Z,31.8825
2023-04-18T07:11:34.926Z,31.8733
2023-04-18T07:12:38.833Z,31.9858
2023-04-18T07:13:42.973Z,32.2358
2023-04-18T07:14:46.918Z,31.9167
2023-04-18T07:15:50.813Z,31.7408
2023-04-18T07:16:54.774Z,32.0292
2023-04-18T07:17:58.803Z,31.9417
2023-04-18T07:19:02.704Z,32.2258
2023-04-18T07:20:06.619Z,32.2750
2023-04-18T07:21:10.610Z,32.4233
2023-04-18T07:22:14.531Z,32.1408
2023-04-18T07:23:18.456Z,32.0825
2023-04-18T07:24:22.392Z,32.2192
2023-04-18T07:25:26.310Z,32.3025
2023-04-18T07:26:30.241Z,32.5092
2023-04-18T07:27:34.151Z,32.4950
2023-04-18T07:28:38.401Z,32.3550
2023-04-18T07:29:42.285Z,32.2683
2023-04-18T07:30:46.294Z,32.2100
2023-04-18T07:31:50.216Z,32.2133
2023-04-18T07:32:54.189Z,32.1617
2023-04-18T07:33:58.130Z,32.3808
2023-04-18T07:35:02.157Z,32.2000
2023-04-18T07:36:06.088Z,31.8783
2023-04-18T07:37:10.015Z,32.4917
2023-04-18T07:38:13.963Z,32.4483
2023-04-18T07:39:17.858Z,32.3658
2023-04-18T07:40:21.837Z,32.1875
2023-04-18T07:41:25.730Z,32.2300
2023-04-18T07:42:29.642Z,32.2517
2023-04-18T07:43:33.546Z,32.2308
2023-04-18T07:44:37.509Z,32.1792
2023-04-18T07:45:41.408Z,32.0525
2023-04-18T07:46:45.411Z,32.0342
2023-04-18T07:47:49.388Z,32.2158
2023-04-18T07:48:53.282Z,32.3667
2023-04-18T07:49:57.269Z,32.1842
2023-04-18T07:51:01.187Z,32.1792
2023-04-18T07:52:05.123Z,32.1325
2023-04-18T07:53:09.292Z,32.1533
2023-04-18T07:54:13.242Z,32.1250
2023-04-18T07:55:17.170Z,32.1417
2023-04-18T07:56:21.097Z,32.1242
2023-04-18T07:57:25.019Z,32.1483
2023-04-18T07:58:28.956Z,32.3358
2023-04-18T07:59:32.871Z,32.0133
2023-04-18T08:00:36.827Z,31.9183
2023-04-18T08:01:40.799Z,32.0383
2023-04-18T08:02:44.814Z,32.1500
2023-04-18T08:03:48.868Z,32.1092
2023-04-18T08:04:53.054Z,32.1417
2023-04-18T08:05:57.126Z,32.2517
2023-04-18T08:07:01.070Z,32.1658
2023-04-18T08:08:05.014Z,32.0867
2023-04-18T08:09:08.919Z,32.0417
2023-04-18T08:10:13.107Z,31.8692
2023-04-18T08:11:17.010Z,31.8425
2023-04-18T08:12:20.940Z,31.8025
2023-04-18T08:13:24.873Z,31.7275
2023-04-18T08:14:28.848Z,31.8633
2023-04-18T08:15:33.050Z,31.7933
2023-04-18T08:16:37.002Z,31.8633
2023-04-18T08:17:40.979Z,31.8200
2023-04-18T08:18:44.906Z,31.7700
2023-04-18T08:19:48.859Z,31.7692
2023-04-18T08:20:52.817Z,31.8233
2023-04-18T08:21:56.886Z,31.7425
2023-04-18T08:23:07.323Z,31.8292
2023-04-18T08:24:05.406Z,31.7891
2023-04-18T08:25:09.505Z,31.9017
2023-04-18T08:26:13.426Z,31.7700
2023-04-18T08:27:17.367Z,31.6717
2023-04-18T08:28:21.536Z,31.7017
2023-04-18T08:29:25.446Z,31.7100
2023-04-18T08:30:29.429Z,31.6450
2023-04-18T08:31:33.436Z,31.5950
2023-04-18T08:32:37.507Z,31.6083
2023-04-18T08:33:41.453Z,31.6025
2023-04-18T08:34:45.372Z,31.6175
2023-04-18T08:35:49.334Z,31.6325
2023-04-18T08:36:53.312Z,31.6625
2023-04-18T08:37:57.311Z,31.5550
2023-04-18T08:39:01.236Z,31.5775
2023-04-18T08:40:05.207Z,31.6000
2023-04-18T08:41:09.169Z,31.5342
2023-04-18T08:42:13.082Z,31.6117
2023-04-18T08:43:17.048Z,31.6342
2023-04-18T08:44:21.046Z,31.6258
2023-04-18T08:45:25.016Z,31.4900
2023-04-18T08:46:29.261Z,31.5708
2023-04-18T08:47:33.189Z,31.5725
2023-04-18T08:48:37.228Z,31.6033
2023-04-18T08:49:41.161Z,31.6092
2023-04-18T08:50:45.185Z,31.5575
2023-04-18T08:51:49.057Z,31.5308
2023-04-18T08:52:52.993Z,31.6025
2023-04-18T08:53:56.925Z,31.5983
2023-04-18T08:55:01.006Z,31.6142
2023-04-18T08:56:04.935Z,31.6233
2023-04-18T08:57:09.009Z,31.6083
2023-04-18T08:58:13.015Z,31.5908
2023-04-18T08:59:16.993Z,31.6142
2023-04-18T09:00:21.005Z,31.5733
2023-04-18T09:01:24.966Z,31.5258
2023-04-18T09:02:28.920Z,31.5450
2023-04-18T09:03:32.870Z,31.5325
2023-04-18T09:04:36.959Z,31.5233
2023-04-18T09:05:41.186Z,31.4958
2023-04-18T09:06:46.050Z,31.4408
2023-04-18T09:07:49.951Z,31.4850
2023-04-18T09:08:53.845Z,31.4250
2023-04-18T09:09:53.969Z,31.3200
2023-04-18T09:10:57.860Z,31.3683
2023-04-18T09:12:01.790Z,31.3225
2023-04-18T09:13:05.699Z,31.2675
2023-04-18T09:14:09.629Z,31.2600
2023-04-18T09:15:13.606Z,31.2558
2023-04-18T09:16:17.561Z,31.1333
2023-04-18T09:17:21.522Z,31.1400
2023-04-18T09:18:25.715Z,31.1783
2023-04-18T09:19:29.644Z,31.2575
2023-04-18T09:20:33.585Z,31.2933
2023-04-18T09:21:37.492Z,31.3717
2023-04-18T09:22:41.406Z,31.1967
2023-04-18T09:23:45.336Z,31.1867
2023-04-18T09:24:49.224Z,31.3058
2023-04-18T09:25:53.154Z,31.4700
2023-04-18T09:26:57.098Z,31.4867
2023-04-18T09:28:01.273Z,31.4917
2023-04-18T09:29:05.358Z,31.4025
2023-04-18T09:30:09.272Z,31.3692
2023-04-18T09:31:13.306Z,31.4133
2023-04-18T09:32:17.314Z,31.3117
2023-04-18T09:33:21.211Z,31.3408
2023-04-18T09:34:25.213Z,31.3183
2023-04-18T09:35:29.103Z,31.3867
2023-04-18T09:36:33.105Z,31.4217
2023-04-18T09:37:37.010Z,31.5650
2023-04-18T09:38:41.112Z,31.4283
2023-04-18T09:39:45.146Z,31.2292
2023-04-18T09:40:49.081Z,31.2125
2023-04-18T09:41:52.990Z,31.1883
2023-04-18T09:42:56.961Z,31.2667
2023-04-18T09:44:00.875Z,31.1617
2023-04-18T09:45:05.121Z,31.1550
2023-04-18T09:46:09.079Z,31.2425
2023-04-18T09:47:13.080Z,31.3908
2023-04-18T09:48:16.973Z,31.3617
2023-04-18T09:49:20.884Z,31.3400
2023-04-18T09:50:24.810Z,31.3242
2023-04-18T09:51:28.783Z,31.4100
2023-04-18T09:52:32.859Z,31.2658
2023-04-18T09:53:36.786Z,30.9917
2023-04-18T09:54:40.666Z,30.9150
2023-04-18T09:55:44.596Z,31.0433
2023-04-18T09:56:48.523Z,31.0025
2023-04-18T09:57:52.704Z,31.0575
2023-04-18T09:58:56.660Z,31.1817
2023-04-18T10:00:00.592Z,31.2133
2023-04-18T10:01:04.513Z,31.1208
2023-04-18T10:02:08.582Z,31.1225
2023-04-18T10:03:12.603Z,31.1200
2023-04-18T10:04:16.971Z,31.0783
2023-04-18T10:05:21.434Z,31.1742
2023-04-18T10:06:25.413Z,31.1933
2023-04-18T10:07:29.306Z,31.1850
2023-04-18T10:08:33.209Z,31.1058
2023-04-18T10:09:37.126Z,31.0800
2023-04-18T10:10:41.096Z,31.2975
2023-04-18T10:11:44.988Z,31.3250
2023-04-18T10:12:48.989Z,31.5033
2023-04-18T10:13:53.035Z,31.6742
2023-04-18T10:14:56.970Z,31.5875
2023-04-18T10:16:00.884Z,31.4850
2023-04-18T10:17:04.767Z,31.5625
2023-04-18T10:18:08.727Z,31.5608
2023-04-18T10:19:13.109Z,31.5450
2023-04-18T10:20:17.226Z,31.5858
2023-04-18T10:21:21.181Z,31.5967
2023-04-18T10:22:25.116Z,31.6883
2023-04-18T10:23:29.055Z,31.6567
2023-04-18T10:24:33.092Z,31.6533
2023-04-18T10:25:37.110Z,31.6958
2023-04-18T10:26:41.061Z,31.7800
2023-04-18T10:27:45.335Z,31.6733
2023-04-18T10:28:49.295Z,31.6975
2023-04-18T10:29:53.275Z,31.8442
2023-04-18T10:30:57.404Z,31.9125
2023-04-18T10:32:01.393Z,31.6517
2023-04-18T10:33:08.494Z,31.8475
2023-04-18T10:34:09.847Z,31.7373
2023-04-18T10:35:13.832Z,31.9958
2023-04-18T10:36:17.805Z,32.0225
2023-04-18T10:37:21.808Z,31.8425
2023-04-18T10:38:25.834Z,31.9150
2023-04-18T10:39:29.777Z,31.7533
2023-04-18T10:40:33.781Z,31.5700
2023-04-18T10:41:37.754Z,32.0208
2023-04-18T10:42:41.748Z,31.9567
2023-04-18T10:43:45.648Z,31.8633
2023-04-18T10:44:49.897Z,31.6875
2023-04-18T10:45:53.917Z,31.8550
2023-04-18T10:46:57.864Z,31.9992
2023-04-18T10:47:58.343Z,31.9245
2023-04-18T10:49:02.248Z,31.6917
2023-04-18T10:50:06.968Z,31.4733
2023-04-18T10:51:11.075Z,31.7358
2023-04-18T10:52:15.037Z,31.6642
2023-04-18T10:53:18.986Z,31.4200
2023-04-18T10:54:22.975Z,31.3675
2023-04-18T10:55:27.103Z,31.5800
2023-04-18T10:56:31.115Z,31.4592
2023-04-18T10:57:35.247Z,31.3692
2023-04-18T10:58:39.147Z,31.4167
2023-04-18T10:59:43.102Z,31.3142
2023-04-18T11:00:47.121Z,31.4100
2023-04-18T11:01:51.026Z,31.3275
2023-04-18T11:02:55.190Z,31.4425
2023-04-18T11:03:59.297Z,31.5183
2023-04-18T11:05:03.299Z,31.7517
2023-04-18T11:06:07.239Z,32.0083
2023-04-18T11:07:11.788Z,31.4750
2023-04-18T11:08:15.838Z,31.7458
2023-04-18T11:09:19.795Z,31.5775
2023-04-18T11:10:23.902Z,31.4517
2023-04-18T11:11:27.828Z,31.6150
2023-04-18T11:12:31.782Z,31.7017
2023-04-18T11:13:35.771Z,31.7092
2023-04-18T11:14:39.824Z,31.6808
2023-04-18T11:15:43.783Z,31.7775
2023-04-18T11:16:47.858Z,31.7367
2023-04-18T11:17:51.907Z,31.8942
2023-04-18T11:18:55.888Z,31.9417
2023-04-18T11:19:59.927Z,31.9417
2023-04-18T11:21:03.951Z,32.0392
2023-04-18T11:22:07.906Z,31.7367
2023-04-18T11:23:11.944Z,31.7692
2023-04-18T11:24:16.039Z,31.7025
2023-04-18T11:25:20.147Z,31.9492
2023-04-18T11:26:24.217Z,31.9383
2023-04-18T11:27:28.163Z,31.8692
2023-04-18T11:28:32.167Z,32.1125
2023-04-18T11:29:36.468Z,32.3175
2023-04-18T11:30:40.361Z,32.2975
2023-04-18T11:31:44.378Z,32.3300
2023-04-18T11:32:48.354Z,32.2767
2023-04-18T11:33:52.287Z,32.3767
2023-04-18T11:34:56.268Z,32.3417
2023-04-18T11:36:00.288Z,32.1433
2023-04-18T11:37:04.213Z,32.0583
2023-04-18T11:38:08.157Z,32.0567
2023-04-18T11:39:12.117Z,31.7883
2023-04-18T11:40:16.277Z,31.8575
2023-04-18T11:41:20.242Z,31.9850
2023-04-18T11:42:24.457Z,32.0775
2023-04-18T11:43:28.352Z,31.8317
2023-04-18T11:44:33.764Z,31.5808
2023-04-18T11:45:34.096Z,31.4909
2023-04-18T11:46:38.368Z,31.6517
2023-04-18T11:47:42.579Z,31.6958
2023-04-18T11:48:46.499Z,31.7117
2023-04-18T11:49:50.509Z,31.7125
2023-04-18T11:50:54.465Z,31.8908
2023-04-18T11:51:58.627Z,31.7592
2023-04-18T11:53:02.537Z,31.7883
2023-04-18T11:54:06.465Z,31.6025
2023-04-18T11:55:10.660Z,31.7317
2023-04-18T11:56:14.585Z,31.8283
2023-04-18T11:57:18.523Z,32.0992
2023-04-18T11:58:22.461Z,31.8833
2023-04-18T11:59:26.400Z,31.7233
2023-04-18T12:00:30.383Z,31.5792
2023-04-18T12:01:34.281Z,31.5208
2023-04-18T12:02:38.472Z,31.5367
2023-04-18T12:03:42.669Z,31.5100
2023-04-18T12:04:47.037Z,31.7067
2023-04-18T12:05:51.370Z,31.6725
2023-04-18T12:06:55.393Z,31.8133
2023-04-18T12:07:59.291Z,31.9008
2023-04-18T12:09:03.193Z,31.8117
2023-04-18T12:10:07.370Z,31.6258
2023-04-18T12:11:11.320Z,31.6008
2023-04-18T12:12:15.275Z,31.6633
2023-04-18T12:13:19.238Z,31.6608
2023-04-18T12:14:23.292Z,31.4633
2023-04-18T12:15:27.304Z,31.3350
2023-04-18T12:16:31.295Z,31.2800
2023-04-18T12:17:35.275Z,31.3050
2023-04-18T12:18:39.271Z,31.4367
2023-04-18T12:19:43.132Z,31.3983
2023-04-18T12:20:47.105Z,31.2575
2023-04-18T12:21:51.050Z,31.3275
2023-04-18T12:22:55.052Z,31.2867
2023-04-18T12:23:58.979Z,31.2508
2023-04-18T12:25:02.885Z,31.2575
2023-04-18T12:26:06.816Z,31.2967
2023-04-18T12:27:11.025Z,31.0892
2023-04-18T12:28:14.975Z,31.2225
2023-04-18T12:29:19.292Z,31.2158
2023-04-18T12:30:23.187Z,31.1867
2023-04-18T12:31:27.214Z,31.1775
2023-04-18T12:32:31.237Z,31.1758
2023-04-18T12:33:35.238Z,31.1792
2023-04-18T12:34:39.197Z,31.2808
2023-04-18T12:35:43.116Z,31.2583
2023-04-18T12:36:47.346Z,31.1767
2023-04-18T12:37:51.245Z,31.3200
2023-04-18T12:38:55.201Z,31.2467
2023-04-18T12:39:59.163Z,31.0742
2023-04-18T12:41:03.112Z,30.9958
2023-04-18T12:42:07.041Z,30.9542
2023-04-18T12:43:11.001Z,30.8317
2023-04-18T12:44:15.135Z,30.9433
2023-04-18T12:45:19.105Z,30.8450
2023-04-18T12:46:23.129Z,30.7425
2023-04-18T12:47:27.130Z,30.8800
2023-04-18T12:48:31.057Z,31.0858
2023-04-18T12:49:34.982Z,30.9742
2023-04-18T12:50:38.915Z,30.9950
2023-04-18T12:51:42.796Z,30.9025
2023-04-18T12:52:46.732Z,30.8917
2023-04-18T12:53:50.642Z,30.8292